Time;durP1;ratioP1;P1;durP2;ratioP2;P2;SDS_P1;SDS_P2;PMS_P1;PMS_P2;Temp;Humidity;BMP_temperature;BMP_pressure;BME280_temperature;BME280_humidity;BME280_pressure;Samples;Min_cycle;Max_cycle;Signal;HPM_P1;HPM_P2
2024/01/22 00:01:10;;;;;;;17.73;10.73;;;11.80;90.80;;;;;;4592856;19;20361;-73
2024/01/22 00:02:54;;;;;;;20.70;12.77;;;11.40;86.60;;;;;;4592753;19;20448;-73
2024/01/22 00:04:30;;;;;;;17.90;10.03;;;11.50;86.10;;;;;;4592632;19;20416;-73
2024/01/22 00:06:19;;;;;;;20.07;10.23;;;11.70;86.30;;;;;;4592186;19;20539;-73
2024/01/22 00:07:53;;;;;;;22.87;12.83;;;11.90;85.60;;;;;;4590349;19;20419;-73
2024/01/22 00:09:27;;;;;;;19.23;10.17;;;12.10;85.20;;;;;;4590541;19;20425;-72
2024/01/22 00:11:02;;;;;;;21.50;11.33;;;12.20;84.80;;;;;;4590643;19;20024;-73
2024/01/22 00:12:37;;;;;;;18.93;10.00;;;12.30;84.50;;;;;;4590538;19;20481;-73
2024/01/22 00:14:10;;;;;;;18.40;10.17;;;12.30;84.30;;;;;;4590235;19;20405;-73
2024/01/22 00:15:46;;;;;;;19.63;12.17;;;12.40;84.00;;;;;;4589598;19;20974;-73
2024/01/22 00:17:19;;;;;;;20.07;11.20;;;12.50;83.90;;;;;;4589823;19;20404;-73
2024/01/22 00:18:54;;;;;;;20.10;11.77;;;12.50;83.90;;;;;;4590203;19;20396;-73
2024/01/22 00:20:30;;;;;;;19.33;10.60;;;12.60;83.60;;;;;;4590240;19;20373;-73
2024/01/22 00:22:04;;;;;;;19.73;10.47;;;12.60;83.60;;;;;;4590121;19;20401;-73
2024/01/22 00:23:38;;;;;;;17.63;10.17;;;12.60;83.10;;;;;;4589999;19;20413;-73
2024/01/22 00:25:14;;;;;;;17.60;9.90;;;12.60;83.50;;;;;;4589961;19;20408;-73
2024/01/22 00:26:47;;;;;;;16.80;9.67;;;12.60;82.70;;;;;;4590076;19;20453;-73
2024/01/22 00:28:21;;;;;;;16.53;9.50;;;12.70;82.80;;;;;;4590082;19;20404;-73
2024/01/22 00:29:57;;;;;;;17.23;9.73;;;12.70;82.60;;;;;;4590259;19;20404;-73
2024/01/22 00:31:32;;;;;;;15.83;9.93;;;12.70;82.80;;;;;;4589927;19;20467;-74
2024/01/22 00:33:06;;;;;;;19.23;10.47;;;12.70;82.80;;;;;;4590136;19;20429;-74
2024/01/22 00:34:42;;;;;;;17.53;10.03;;;12.70;82.70;;;;;;4589910;19;20405;-74
2024/01/22 00:36:16;;;;;;;16.67;10.03;;;12.70;82.40;;;;;;4588585;19;20017;-74
2024/01/22 00:37:49;;;;;;;17.60;9.80;;;12.70;82.50;;;;;;4588904;19;20425;-74
2024/01/22 00:39:25;;;;;;;15.57;9.77;;;12.70;82.30;;;;;;4589912;19;20969;-74
2024/01/22 00:40:59;;;;;;;14.43;9.30;;;12.70;82.50;;;;;;4590057;19;20946;-74
2024/01/22 00:42:33;;;;;;;13.80;8.77;;;12.70;82.60;;;;;;4589752;19;20011;-74
2024/01/22 00:44:08;;;;;;;16.23;9.77;;;12.70;82.50;;;;;;4589739;19;20451;-74
2024/01/22 00:45:42;;;;;;;15.63;9.77;;;12.80;82.40;;;;;;4589154;19;20437;-74
2024/01/22 00:47:16;;;;;;;14.83;9.00;;;12.70;82.20;;;;;;4589984;19;20393;-74
2024/01/22 00:48:52;;;;;;;13.80;9.67;;;12.70;82.00;;;;;;4590043;19;20413;-74
2024/01/22 00:50:27;;;;;;;14.87;9.37;;;12.70;81.70;;;;;;4589679;19;20393;-74
2024/01/22 00:52:01;;;;;;;16.40;9.27;;;12.70;81.80;;;;;;4589982;19;19998;-74
2024/01/22 00:53:36;;;;;;;14.37;9.40;;;12.70;81.90;;;;;;4589712;19;20717;-74
2024/01/22 00:55:10;;;;;;;18.13;9.67;;;12.70;81.60;;;;;;4589679;19;20428;-74
2024/01/22 00:56:45;;;;;;;15.37;9.30;;;12.70;81.50;;;;;;4589348;19;20448;-74
2024/01/22 00:58:20;;;;;;;13.50;9.20;;;12.70;81.40;;;;;;4591540;19;20039;-73
2024/01/22 00:59:55;;;;;;;15.07;9.50;;;12.70;81.50;;;;;;4595140;19;20907;-73
2024/01/22 01:18:14;;;;;;;16.80;9.77;;;12.70;81.30;;;;;;4578468;19;20489;-73
2024/01/22 01:19:50;;;;;;;13.70;8.90;;;12.70;81.50;;;;;;4595991;19;20384;-73
2024/01/22 01:21:24;;;;;;;16.13;10.10;;;12.70;81.20;;;;;;4596286;19;20389;-73
2024/01/22 01:22:58;;;;;;;15.70;9.63;;;12.70;82.00;;;;;;4594723;19;20002;-73
2024/01/22 01:24:34;;;;;;;15.87;9.57;;;12.60;82.40;;;;;;4595750;19;20456;-73
2024/01/22 01:26:09;;;;;;;16.70;9.10;;;12.70;81.90;;;;;;4595996;19;20004;-73
2024/01/22 01:27:43;;;;;;;14.53;9.73;;;12.70;81.20;;;;;;4595065;19;20453;-73
2024/01/22 01:29:18;;;;;;;14.27;9.23;;;12.60;80.80;;;;;;4596236;19;20424;-73
2024/01/22 01:30:52;;;;;;;14.53;8.87;;;12.60;80.60;;;;;;4595907;19;20401;-73
2024/01/22 01:32:27;;;;;;;15.63;9.00;;;12.60;80.60;;;;;;4594453;19;20964;-73
2024/01/22 01:34:03;;;;;;;15.50;9.43;;;12.60;80.90;;;;;;4595470;19;20503;-73
2024/01/22 01:35:37;;;;;;;14.30;9.40;;;12.60;80.90;;;;;;4595784;19;20397;-73
2024/01/22 01:37:12;;;;;;;16.03;9.83;;;12.60;81.20;;;;;;4594853;19;20425;-73
2024/01/22 01:38:48;;;;;;;16.83;10.00;;;12.60;81.10;;;;;;4595986;19;20998;-73
2024/01/22 01:40:22;;;;;;;15.60;10.10;;;12.60;80.70;;;;;;4595696;19;20736;-73
2024/01/22 01:41:55;;;;;;;13.00;8.70;;;12.60;81.00;;;;;;4595619;19;20432;-73
2024/01/22 01:43:30;;;;;;;14.63;9.70;;;12.60;81.60;;;;;;4595638;19;20503;-73
2024/01/22 01:45:05;;;;;;;18.17;10.43;;;12.60;81.70;;;;;;4595606;19;20385;-73
2024/01/22 01:46:40;;;;;;;15.27;10.03;;;12.60;81.60;;;;;;4594510;19;20385;-73
2024/01/22 01:48:15;;;;;;;16.90;9.70;;;12.60;81.50;;;;;;4593929;19;20717;-73
2024/01/22 01:49:49;;;;;;;14.67;9.67;;;12.60;81.30;;;;;;4595575;19;20727;-73
2024/01/22 01:51:24;;;;;;;15.23;9.03;;;12.60;80.80;;;;;;4595446;19;20017;-73
2024/01/22 01:53:00;;;;;;;15.87;9.53;;;12.60;81.00;;;;;;4595534;19;20409;-73
2024/01/22 01:54:35;;;;;;;15.00;9.67;;;12.60;80.90;;;;;;4595644;19;20392;-73
2024/01/22 01:56:08;;;;;;;13.50;9.13;;;12.60;81.20;;;;;;4595341;19;20416;-73
2024/01/22 01:57:44;;;;;;;12.77;8.70;;;12.60;81.40;;;;;;4592607;19;20536;-73
2024/01/22 01:59:19;;;;;;;11.60;8.57;;;12.60;80.90;;;;;;4593926;19;20421;-73
2024/01/22 02:00:54;;;;;;;14.50;9.27;;;12.60;81.20;;;;;;4594166;19;20496;-73
2024/01/22 02:02:30;;;;;;;15.27;9.70;;;12.60;81.10;;;;;;4595006;19;20476;-73
2024/01/22 02:04:04;;;;;;;14.27;8.97;;;12.60;81.20;;;;;;4595142;19;20451;-73
2024/01/22 02:05:38;;;;;;;14.40;9.67;;;12.60;80.90;;;;;;4595184;19;20415;-73
2024/01/22 02:07:14;;;;;;;14.73;8.77;;;12.60;80.90;;;;;;4593523;19;20539;-73
2024/01/22 02:08:52;;;;;;;12.60;8.80;;;12.60;81.40;;;;;;4594450;19;20389;-73
2024/01/22 02:10:27;;;;;;;13.67;8.63;;;12.60;81.10;;;;;;4593576;19;20401;-73
2024/01/22 02:12:03;;;;;;;14.53;9.00;;;12.60;80.90;;;;;;4594033;19;20411;-73
2024/01/22 02:13:37;;;;;;;14.03;9.00;;;12.50;80.90;;;;;;4593620;19;20744;-73
2024/01/22 02:15:11;;;;;;;13.33;8.87;;;12.60;81.20;;;;;;4594592;19;20902;-73
2024/01/22 02:16:47;;;;;;;15.90;9.87;;;12.60;81.20;;;;;;4594652;19;20409;-73
2024/01/22 02:18:21;;;;;;;14.07;9.10;;;12.60;81.50;;;;;;4593512;19;20464;-73
2024/01/22 02:19:55;;;;;;;14.37;9.63;;;12.50;81.50;;;;;;4593550;19;20463;-73
2024/01/22 02:21:31;;;;;;;14.60;8.60;;;12.50;81.30;;;;;;4594469;19;20455;-73
2024/01/22 02:23:05;;;;;;;13.83;8.90;;;12.50;81.00;;;;;;4594762;19;20437;-73
2024/01/22 02:24:41;;;;;;;12.30;8.10;;;12.50;81.10;;;;;;4594795;19;20427;-73
2024/01/22 02:26:16;;;;;;;13.10;8.63;;;12.50;81.40;;;;;;4594780;19;20378;-73
2024/01/22 02:27:51;;;;;;;13.23;8.73;;;12.50;81.20;;;;;;4592607;19;20475;-73
2024/01/22 02:29:25;;;;;;;14.93;9.63;;;12.60;81.30;;;;;;4594301;19;20918;-73
2024/01/22 02:31:02;;;;;;;14.07;8.83;;;12.50;81.30;;;;;;4595023;19;20472;-73
2024/01/22 02:32:36;;;;;;;13.07;8.60;;;12.50;81.10;;;;;;4594633;19;20370;-73
2024/01/22 02:34:12;;;;;;;14.13;9.57;;;12.50;81.00;;;;;;4594614;19;20005;-73
2024/01/22 02:35:47;;;;;;;13.73;9.03;;;12.50;81.30;;;;;;4594572;19;20412;-73
2024/01/22 02:37:21;;;;;;;18.90;10.77;;;12.50;81.30;;;;;;4593588;19;20408;-73
2024/01/22 02:38:57;;;;;;;13.57;9.43;;;12.50;81.10;;;;;;4593145;19;20449;-73
2024/01/22 02:40:32;;;;;;;14.37;9.37;;;12.50;81.20;;;;;;4594220;19;20415;-73
2024/01/22 02:42:06;;;;;;;13.97;9.40;;;12.50;81.60;;;;;;4594470;19;20405;-73
2024/01/22 02:43:42;;;;;;;13.53;9.07;;;12.50;82.10;;;;;;4594389;19;20393;-73
2024/01/22 02:45:18;;;;;;;15.17;9.70;;;12.50;81.90;;;;;;4594666;19;20381;-73
2024/01/22 02:46:53;;;;;;;16.70;11.37;;;12.50;81.60;;;;;;4594304;19;20381;-73
2024/01/22 02:48:27;;;;;;;18.40;12.70;;;12.50;81.70;;;;;;4593250;19;21015;-73
2024/01/22 02:50:03;;;;;;;14.90;9.67;;;12.50;81.90;;;;;;4594245;19;20442;-73
2024/01/22 02:51:37;;;;;;;16.43;10.73;;;12.50;81.50;;;;;;4594210;19;20385;-73
2024/01/22 02:53:10;;;;;;;13.10;9.03;;;12.50;81.30;;;;;;4593101;19;20393;-73
2024/01/22 02:54:47;;;;;;;15.23;11.00;;;12.50;81.40;;;;;;4593801;19;20029;-73
2024/01/22 02:56:21;;;;;;;19.03;12.40;;;12.50;81.70;;;;;;4594129;19;21039;-73
2024/01/22 02:57:56;;;;;;;17.70;11.70;;;12.50;81.80;;;;;;4591700;19;20574;-73
2024/01/22 02:59:36;;;;;;;18.13;11.90;;;12.50;81.90;;;;;;4592760;19;20392;-73
2024/01/22 03:01:15;;;;;;;34.08;23.67;;;12.50;82.00;;;;;;4592757;19;20398;-73
2024/01/22 03:02:49;;;;;;;28.37;19.00;;;12.50;82.80;;;;;;4593631;19;20066;-73
2024/01/22 03:04:24;;;;;;;18.57;12.50;;;12.50;83.20;;;;;;4593926;19;20401;-73
2024/01/22 03:05:58;;;;;;;17.57;11.93;;;12.50;82.60;;;;;;4593927;19;20389;-73
2024/01/22 03:07:32;;;;;;;14.33;9.70;;;12.50;82.60;;;;;;4593672;19;20429;-73
2024/01/22 03:09:09;;;;;;;12.60;8.97;;;12.50;82.60;;;;;;4593899;19;20397;-73
2024/01/22 03:10:43;;;;;;;16.20;10.10;;;12.50;82.20;;;;;;4593868;19;20451;-73
2024/01/22 03:12:17;;;;;;;12.20;8.87;;;12.50;82.40;;;;;;4593814;19;20719;-73
2024/01/22 03:13:52;;;;;;;13.63;9.37;;;12.50;82.40;;;;;;4594265;19;20481;-73
2024/01/22 03:15:28;;;;;;;15.67;9.33;;;12.50;82.50;;;;;;4593744;19;20420;-73
2024/01/22 03:17:03;;;;;;;10.63;7.57;;;12.50;82.60;;;;;;4593299;19;20450;-73
2024/01/22 03:18:39;;;;;;;12.37;8.67;;;12.50;82.40;;;;;;4592669;19;20400;-73
2024/01/22 03:20:14;;;;;;;12.33;8.10;;;12.50;82.50;;;;;;4593896;19;20392;-73
2024/01/22 03:21:48;;;;;;;11.33;7.30;;;12.50;82.40;;;;;;4591535;19;20389;-73
2024/01/22 03:23:25;;;;;;;11.23;7.43;;;12.50;82.20;;;;;;4593554;19;20404;-73
2024/01/22 03:24:59;;;;;;;13.30;8.40;;;12.40;82.40;;;;;;4593861;19;20393;-73
2024/01/22 03:26:34;;;;;;;11.60;7.80;;;12.50;82.60;;;;;;4593725;19;20419;-73
2024/01/22 03:28:09;;;;;;;13.00;8.33;;;12.50;82.30;;;;;;4592627;19;20444;-73
2024/01/22 03:29:44;;;;;;;11.87;7.83;;;12.40;82.30;;;;;;4593392;19;20396;-73
2024/01/22 03:31:30;;;;;;;12.47;8.10;;;12.40;82.30;;;;;;4593669;19;20401;-73
2024/01/22 03:33:07;;;;;;;11.00;7.43;;;12.40;82.50;;;;;;4593733;19;20949;-73
2024/01/22 03:34:41;;;;;;;12.70;8.53;;;12.40;82.20;;;;;;4593393;19;19998;-73
2024/01/22 03:36:15;;;;;;;13.07;8.67;;;12.40;82.00;;;;;;4593612;19;20681;-73
2024/01/22 03:37:50;;;;;;;12.80;8.00;;;12.40;82.20;;;;;;4592210;19;20006;-73
2024/01/22 03:39:24;;;;;;;13.60;7.83;;;12.40;82.30;;;;;;4593208;19;20415;-73
2024/01/22 03:40:58;;;;;;;13.33;9.50;;;12.40;82.50;;;;;;4593187;19;20405;-73
2024/01/22 03:42:34;;;;;;;11.90;7.67;;;12.40;82.40;;;;;;4593490;19;20419;-73
2024/01/22 03:44:09;;;;;;;13.80;8.30;;;12.40;82.40;;;;;;4591853;19;20496;-73
2024/01/22 03:45:43;;;;;;;10.90;7.30;;;12.40;82.40;;;;;;4592754;19;20389;-73
2024/01/22 03:47:18;;;;;;;12.07;8.03;;;12.40;82.50;;;;;;4592908;19;20411;-73
2024/01/22 03:48:52;;;;;;;12.27;7.73;;;12.40;82.30;;;;;;4593252;19;20397;-74
2024/01/22 03:50:26;;;;;;;11.77;8.73;;;12.40;82.70;;;;;;4593314;19;20997;-74
2024/01/22 03:52:02;;;;;;;11.60;7.97;;;12.40;82.40;;;;;;4593101;19;20362;-74
2024/01/22 03:53:37;;;;;;;12.33;7.70;;;12.40;82.20;;;;;;4591436;19;20455;-74
2024/01/22 03:55:12;;;;;;;12.07;8.10;;;12.40;82.50;;;;;;4592467;19;20508;-74
2024/01/22 03:56:47;;;;;;;11.90;7.57;;;12.40;82.90;;;;;;4593215;19;20425;-74
2024/01/22 03:58:20;;;;;;;13.97;8.00;;;12.40;83.00;;;;;;4592112;19;20563;-74
2024/01/22 03:59:55;;;;;;;13.47;8.37;;;12.40;82.80;;;;;;4591733;19;20388;-74
2024/01/22 04:01:30;;;;;;;12.37;7.83;;;12.40;82.80;;;;;;4592536;19;20381;-74
2024/01/22 04:03:04;;;;;;;10.03;7.20;;;12.40;83.10;;;;;;4592733;19;20385;-74
2024/01/22 04:04:38;;;;;;;10.10;7.60;;;12.40;83.00;;;;;;4592656;19;20435;-74
2024/01/22 04:06:13;;;;;;;11.43;7.90;;;12.40;82.80;;;;;;4593167;19;20447;-74
2024/01/22 04:07:47;;;;;;;13.13;8.23;;;12.40;82.90;;;;;;4592296;19;20441;-74
2024/01/22 04:09:22;;;;;;;12.50;7.83;;;12.40;82.90;;;;;;4592577;19;20413;-74
2024/01/22 04:10:57;;;;;;;11.43;7.50;;;12.40;83.00;;;;;;4592627;19;20373;-74
2024/01/22 04:12:32;;;;;;;10.70;7.63;;;12.40;83.20;;;;;;4592557;19;20433;-74
2024/01/22 04:14:07;;;;;;;11.17;7.67;;;12.40;83.00;;;;;;4592481;19;20393;-73
2024/01/22 04:15:43;;;;;;;13.60;7.87;;;12.40;82.90;;;;;;4592494;19;20405;-73
2024/01/22 04:17:18;;;;;;;12.27;8.80;;;12.40;83.00;;;;;;4591518;19;20440;-73
2024/01/22 04:18:52;;;;;;;12.43;8.60;;;12.40;83.60;;;;;;4592776;19;20370;-73
2024/01/22 04:20:27;;;;;;;12.40;8.27;;;12.40;83.50;;;;;;4591389;19;20415;-73
2024/01/22 04:22:03;;;;;;;11.30;7.73;;;12.40;83.20;;;;;;4591991;19;20740;-73
2024/01/22 04:23:38;;;;;;;12.07;8.87;;;12.40;83.40;;;;;;4592558;19;20451;-73
2024/01/22 04:25:14;;;;;;;11.63;8.20;;;12.40;83.30;;;;;;4590897;19;20416;-73
2024/01/22 04:26:48;;;;;;;12.73;8.10;;;12.40;83.50;;;;;;4591907;19;20389;-73
2024/01/22 04:28:22;;;;;;;12.43;9.03;;;12.40;83.40;;;;;;4591255;19;20453;-73
2024/01/22 04:29:57;;;;;;;12.53;8.20;;;12.40;83.50;;;;;;4592173;19;20421;-73
2024/01/22 04:31:31;;;;;;;10.40;7.83;;;12.40;83.60;;;;;;4592486;19;20492;-73
2024/01/22 04:33:05;;;;;;;11.30;7.20;;;12.40;83.70;;;;;;4591674;19;20444;-73
2024/01/22 04:34:40;;;;;;;12.37;7.80;;;12.40;83.40;;;;;;4592246;19;20416;-73
2024/01/22 04:36:15;;;;;;;11.77;8.07;;;12.40;83.10;;;;;;4592077;19;20389;-73
2024/01/22 04:37:49;;;;;;;12.17;8.23;;;12.40;83.70;;;;;;4591086;19;20982;-73
2024/01/22 04:39:25;;;;;;;10.77;7.23;;;12.40;83.60;;;;;;4592067;19;20396;-73
2024/01/22 04:41:00;;;;;;;11.53;7.33;;;12.40;83.60;;;;;;4592323;19;20512;-73
2024/01/22 04:42:33;;;;;;;13.17;7.63;;;12.30;83.90;;;;;;4591965;19;20740;-73
2024/01/22 04:44:08;;;;;;;9.53;7.33;;;12.30;84.20;;;;;;4592290;19;20393;-73
2024/01/22 04:45:43;;;;;;;12.40;8.13;;;12.40;84.30;;;;;;4590538;19;20010;-73
2024/01/22 04:47:17;;;;;;;10.27;6.83;;;12.40;84.60;;;;;;4591387;19;20729;-73
2024/01/22 04:48:52;;;;;;;11.13;7.07;;;12.40;85.00;;;;;;4592428;19;20385;-73
2024/01/22 04:50:27;;;;;;;12.17;8.60;;;12.40;85.30;;;;;;4592151;19;20385;-73
2024/01/22 04:52:01;;;;;;;12.17;9.00;;;12.50;85.30;;;;;;4592147;19;20685;-73
2024/01/22 04:53:37;;;;;;;12.47;8.63;;;12.50;85.30;;;;;;4591922;19;20688;-74
2024/01/22 04:55:11;;;;;;;10.97;8.20;;;12.60;85.40;;;;;;4591812;19;21050;-73
2024/01/22 04:56:46;;;;;;;13.67;8.27;;;12.80;85.60;;;;;;4591801;19;20441;-74
2024/01/22 04:58:22;;;;;;;12.97;7.50;;;12.90;85.20;;;;;;4590772;19;20520;-73
2024/01/22 04:59:55;;;;;;;12.13;8.23;;;13.00;84.50;;;;;;4591763;19;20404;-73
2024/01/22 05:01:30;;;;;;;11.03;8.47;;;13.20;84.40;;;;;;4591984;19;20901;-73
2024/01/22 05:03:07;;;;;;;11.70;8.13;;;13.40;84.60;;;;;;4592051;19;20862;-73
2024/01/22 05:04:42;;;;;;;15.37;9.50;;;13.50;84.10;;;;;;4591962;19;20440;-73
2024/01/22 05:06:16;;;;;;;15.53;10.03;;;13.60;83.60;;;;;;4591696;19;20381;-73
2024/01/22 05:07:52;;;;;;;13.80;10.37;;;13.70;83.50;;;;;;4589675;19;20005;-72
2024/01/22 05:09:26;;;;;;;11.80;9.07;;;13.80;83.20;;;;;;4590173;19;20451;-72
2024/01/22 05:11:00;;;;;;;12.50;9.47;;;13.80;83.90;;;;;;4591479;19;20029;-73
2024/01/22 05:12:36;;;;;;;11.30;7.90;;;13.80;82.80;;;;;;4591669;19;20007;-73
2024/01/22 05:14:12;;;;;;;12.00;8.20;;;13.90;82.60;;;;;;4591827;19;19998;-73
2024/01/22 05:15:46;;;;;;;13.23;9.17;;;13.90;82.60;;;;;;4591726;19;20345;-73
2024/01/22 05:17:23;;;;;;;12.37;8.50;;;13.90;82.20;;;;;;4589093;19;21037;-73
2024/01/22 05:18:58;;;;;;;12.53;8.00;;;13.90;82.10;;;;;;4591168;19;20007;-72
2024/01/22 05:20:33;;;;;;;14.10;9.20;;;13.90;82.30;;;;;;4591293;19;20003;-73
2024/01/22 05:22:09;;;;;;;14.93;8.93;;;13.90;82.50;;;;;;4590371;19;20024;-73
2024/01/22 05:23:43;;;;;;;14.07;9.93;;;13.90;82.60;;;;;;4591176;19;20287;-73
2024/01/22 05:25:17;;;;;;;12.67;9.30;;;13.90;82.20;;;;;;4591616;19;19999;-73
2024/01/22 05:26:53;;;;;;;23.83;15.73;;;13.90;82.90;;;;;;4591634;19;20078;-73
2024/01/22 05:28:27;;;;;;;16.23;12.27;;;13.80;82.40;;;;;;4589889;19;20082;-73
2024/01/22 05:30:02;;;;;;;18.67;16.67;;;13.80;82.30;;;;;;4591197;19;20006;-73
2024/01/22 05:31:38;;;;;;;23.33;20.20;;;13.80;82.30;;;;;;4591216;19;20066;-73
2024/01/22 05:33:12;;;;;;;55.67;50.03;;;13.80;82.40;;;;;;4591077;19;20443;-73
2024/01/22 05:34:46;;;;;;;63.57;57.00;;;13.90;82.60;;;;;;4591300;19;20003;-73
2024/01/22 05:36:22;;;;;;;44.83;40.43;;;14.00;82.50;;;;;;4591089;19;20010;-73
2024/01/22 05:37:56;;;;;;;32.03;28.83;;;14.10;82.40;;;;;;4589861;19;20440;-73
2024/01/22 05:39:31;;;;;;;30.17;27.17;;;14.20;82.20;;;;;;4591120;19;20405;-73
2024/01/22 05:41:07;;;;;;;19.73;14.33;;;14.30;82.00;;;;;;4591145;19;20370;-72
2024/01/22 05:42:41;;;;;;;16.50;11.93;;;14.30;81.70;;;;;;4591015;19;19999;-73
2024/01/22 05:44:15;;;;;;;19.47;10.90;;;14.40;81.40;;;;;;4591921;19;19998;-73
2024/01/22 05:45:51;;;;;;;15.77;10.70;;;14.40;81.20;;;;;;4595547;19;20090;-73
2024/01/22 05:47:25;;;;;;;22.33;12.23;;;14.50;81.30;;;;;;4595055;19;20003;-73
2024/01/22 05:49:00;;;;;;;20.87;12.10;;;14.50;81.10;;;;;;4594396;19;20436;-73
2024/01/22 05:50:35;;;;;;;18.53;10.13;;;14.60;81.00;;;;;;4595123;19;20007;-73
2024/01/22 05:52:11;;;;;;;12.67;8.73;;;14.60;80.70;;;;;;4595468;19;20002;-72
2024/01/22 05:53:46;;;;;;;14.10;9.20;;;14.50;80.60;;;;;;4595427;19;20010;-73
2024/01/22 05:55:21;;;;;;;15.73;10.03;;;14.60;80.70;;;;;;4595373;19;20429;-72
2024/01/22 05:56:55;;;;;;;14.17;9.90;;;14.60;80.70;;;;;;4593741;19;20003;-73
2024/01/22 05:58:28;;;;;;;14.17;9.93;;;14.60;80.70;;;;;;4593391;19;20062;-72
2024/01/22 06:00:09;;;;;;;15.13;10.93;;;14.60;80.80;;;;;;4594240;19;19998;-73
2024/01/22 06:01:46;;;;;;;15.40;12.93;;;14.60;80.70;;;;;;4594962;19;20440;-73
2024/01/22 06:03:20;;;;;;;15.33;10.83;;;14.60;80.60;;;;;;4595174;19;19999;-73
2024/01/22 06:04:57;;;;;;;20.33;11.83;;;14.60;80.40;;;;;;4595467;19;20074;-73
2024/01/22 06:06:31;;;;;;;20.13;11.03;;;14.70;80.40;;;;;;4595154;19;19999;-73
2024/01/22 06:08:06;;;;;;;18.83;10.50;;;14.70;80.40;;;;;;4594210;19;20027;-73
2024/01/22 06:09:41;;;;;;;14.50;9.27;;;14.70;80.70;;;;;;4595385;19;20307;-73
2024/01/22 06:11:17;;;;;;;12.43;8.43;;;14.70;80.40;;;;;;4595031;19;20476;-73
2024/01/22 06:12:52;;;;;;;14.07;8.77;;;14.80;79.90;;;;;;4594067;19;20436;-73
2024/01/22 06:14:28;;;;;;;11.23;7.73;;;14.80;79.90;;;;;;4594695;19;20085;-73
2024/01/22 06:16:03;;;;;;;11.00;7.57;;;14.90;79.60;;;;;;4594986;19;20005;-73
2024/01/22 06:17:36;;;;;;;13.40;8.63;;;14.90;79.50;;;;;;4593436;19;20018;-73
2024/01/22 06:19:12;;;;;;;12.87;8.57;;;14.90;79.50;;;;;;4593578;19;20006;-73
2024/01/22 06:20:46;;;;;;;11.17;7.77;;;15.00;79.20;;;;;;4594761;19;19998;-73
2024/01/22 06:22:21;;;;;;;12.50;8.00;;;15.00;78.90;;;;;;4595059;19;19998;-73
2024/01/22 06:23:58;;;;;;;12.87;9.03;;;15.00;78.70;;;;;;4594867;19;20080;-73
2024/01/22 06:25:31;;;;;;;11.37;7.80;;;15.00;78.60;;;;;;4594968;19;20009;-73
2024/01/22 06:27:06;;;;;;;13.33;8.23;;;15.00;78.60;;;;;;4594655;19;20010;-73
2024/01/22 06:28:42;;;;;;;14.23;8.63;;;15.00;78.40;;;;;;4594983;19;20006;-73
2024/01/22 06:30:16;;;;;;;11.27;7.27;;;14.90;78.10;;;;;;4594861;19;20333;-73
2024/01/22 06:31:50;;;;;;;11.03;7.20;;;14.90;77.80;;;;;;4594906;19;20002;-73
2024/01/22 06:33:25;;;;;;;10.23;6.53;;;14.80;77.70;;;;;;4594605;19;20006;-73
2024/01/22 06:34:59;;;;;;;8.67;6.50;;;14.80;77.70;;;;;;4594593;19;20013;-73
2024/01/22 06:36:34;;;;;;;10.07;6.93;;;14.80;77.70;;;;;;4594483;19;19999;-73
2024/01/22 06:38:10;;;;;;;9.50;6.80;;;14.80;77.80;;;;;;4593195;19;20422;-73
2024/01/22 06:39:44;;;;;;;10.87;6.87;;;14.70;77.40;;;;;;4594707;19;20061;-72
2024/01/22 06:41:22;;;;;;;9.17;7.13;;;14.70;77.40;;;;;;4594492;19;20070;-73
2024/01/22 06:42:57;;;;;;;8.87;6.20;;;14.70;77.30;;;;;;4594686;19;20410;-73
2024/01/22 06:44:31;;;;;;;9.93;7.03;;;14.70;77.20;;;;;;4594261;19;20314;-73
2024/01/22 06:46:05;;;;;;;10.63;7.10;;;14.70;76.90;;;;;;4594284;19;19999;-73
2024/01/22 06:47:40;;;;;;;8.67;6.27;;;14.70;77.00;;;;;;4593930;19;20011;-73
2024/01/22 06:49:15;;;;;;;9.43;6.70;;;14.70;77.60;;;;;;4594500;19;20429;-73
2024/01/22 06:50:50;;;;;;;9.83;7.37;;;14.70;76.80;;;;;;4594554;19;20446;-72
2024/01/22 06:52:26;;;;;;;9.27;7.17;;;14.70;76.80;;;;;;4594274;19;20019;-72
2024/01/22 06:54:00;;;;;;;9.60;6.33;;;14.70;76.80;;;;;;4593164;19;19998;-72
2024/01/22 06:55:35;;;;;;;13.10;6.77;;;14.70;76.70;;;;;;4594025;19;20070;-72
2024/01/22 06:57:10;;;;;;;11.37;6.93;;;14.70;76.60;;;;;;4593842;19;20009;-73
2024/01/22 06:58:45;;;;;;;12.60;7.37;;;14.70;76.80;;;;;;4594047;19;20306;-73
2024/01/22 07:00:19;;;;;;;9.83;6.93;;;14.60;76.60;;;;;;4594069;19;20476;-73
2024/01/22 07:01:55;;;;;;;11.60;7.10;;;14.60;76.80;;;;;;4592527;19;20015;-73
2024/01/22 07:03:29;;;;;;;9.90;6.97;;;14.60;76.90;;;;;;4593875;19;20005;-73
2024/01/22 07:05:04;;;;;;;12.50;7.67;;;14.60;76.80;;;;;;4593821;19;20014;-73
2024/01/22 07:06:39;;;;;;;9.83;7.03;;;14.50;77.50;;;;;;4594014;19;20006;-73
2024/01/22 07:08:13;;;;;;;9.97;6.97;;;14.50;77.00;;;;;;4593109;19;20405;-72
2024/01/22 07:09:48;;;;;;;9.80;7.40;;;14.50;76.90;;;;;;4594323;19;20023;-73
2024/01/22 07:11:23;;;;;;;10.37;6.90;;;14.50;76.90;;;;;;4593990;19;19998;-72
2024/01/22 07:12:57;;;;;;;10.57;7.80;;;14.40;76.80;;;;;;4594010;19;20006;-72
2024/01/22 07:14:33;;;;;;;9.70;6.87;;;14.30;76.80;;;;;;4594026;19;20425;-72
2024/01/22 07:16:08;;;;;;;11.13;7.27;;;14.30;81.30;;;;;;4593980;19;20314;-73
2024/01/22 07:17:42;;;;;;;11.77;7.67;;;14.30;77.40;;;;;;4592395;19;20015;-72
2024/01/22 07:19:19;;;;;;;14.87;8.63;;;14.20;77.30;;;;;;4593683;19;20019;-72
2024/01/22 07:20:53;;;;;;;27.30;16.17;;;14.20;77.20;;;;;;4593601;19;19998;-72
2024/01/22 07:22:27;;;;;;;17.87;12.00;;;14.20;77.50;;;;;;4593582;19;20359;-72
2024/01/22 07:24:03;;;;;;;26.60;18.03;;;14.10;77.60;;;;;;4593829;19;20002;-72
2024/01/22 07:25:37;;;;;;;47.37;28.53;;;14.00;77.30;;;;;;4593537;19;20022;-73
2024/01/22 07:27:11;;;;;;;40.17;21.73;;;14.00;77.60;;;;;;4591918;19;20404;-72
2024/01/22 07:28:47;;;;;;;50.13;26.87;;;14.00;77.60;;;;;;4593256;19;20006;-72
2024/01/22 07:30:21;;;;;;;66.67;35.63;;;13.90;77.40;;;;;;4593247;19;20010;-72
2024/01/22 07:31:55;;;;;;;28.17;16.93;;;13.90;77.30;;;;;;4593295;19;20006;-73
2024/01/22 07:33:30;;;;;;;14.03;8.80;;;13.80;77.50;;;;;;4593985;19;20028;-73
2024/01/22 07:35:13;;;;;;;16.80;10.90;;;13.80;77.50;;;;;;4593167;19;20011;-72
2024/01/22 07:36:48;;;;;;;15.10;10.30;;;13.70;77.60;;;;;;4593182;19;20007;-72
2024/01/22 07:38:23;;;;;;;13.73;9.33;;;13.70;77.50;;;;;;4592541;19;20405;-73
2024/01/22 07:39:59;;;;;;;13.80;9.20;;;13.70;77.40;;;;;;4593337;19;19998;-73
2024/01/22 07:41:33;;;;;;;18.93;11.90;;;13.70;78.60;;;;;;4591879;19;20006;-73
2024/01/22 07:43:08;;;;;;;15.80;9.60;;;13.60;77.90;;;;;;4592994;19;20014;-73
2024/01/22 07:44:42;;;;;;;11.47;8.00;;;13.60;77.50;;;;;;4592991;19;20006;-73
2024/01/22 07:46:16;;;;;;;10.57;7.67;;;13.60;77.80;;;;;;4592980;19;20003;-73
2024/01/22 07:47:52;;;;;;;9.60;7.73;;;13.50;77.60;;;;;;4592234;19;20014;-73
2024/01/22 07:49:25;;;;;;;12.33;8.03;;;13.50;77.50;;;;;;4593155;19;20035;-73
2024/01/22 07:51:00;;;;;;;14.17;7.33;;;13.40;77.60;;;;;;4593160;19;20003;-73
2024/01/22 07:52:35;;;;;;;10.83;7.30;;;13.40;77.70;;;;;;4593126;19;19999;-72
2024/01/22 07:54:10;;;;;;;10.77;8.50;;;13.40;77.50;;;;;;4592783;19;20553;-73
2024/01/22 07:55:44;;;;;;;9.60;6.90;;;13.40;78.10;;;;;;4592733;19;20006;-73
2024/01/22 07:57:20;;;;;;;12.00;7.53;;;13.40;77.80;;;;;;4592465;19;20002;-73
2024/01/22 07:58:54;;;;;;;16.53;11.63;;;13.40;78.00;;;;;;4592729;19;20002;-72
2024/01/22 08:00:29;;;;;;;16.43;11.77;;;13.40;78.20;;;;;;4592778;19;20003;-73
2024/01/22 08:02:08;;;;;;;13.30;9.23;;;13.40;78.40;;;;;;4591402;19;20086;-72
2024/01/22 08:03:42;;;;;;;21.17;12.13;;;13.40;78.30;;;;;;4592518;19;20440;-73
2024/01/22 08:05:17;;;;;;;18.07;11.53;;;13.40;78.40;;;;;;4592573;19;20006;-73
2024/01/22 08:06:53;;;;;;;15.73;11.37;;;13.40;78.60;;;;;;4592305;19;20029;-73
2024/01/22 08:08:31;;;;;;;23.47;14.47;;;13.40;78.90;;;;;;4591208;19;20042;-72
2024/01/22 08:10:07;;;;;;;20.30;15.93;;;13.40;79.30;;;;;;4591502;19;20006;-72
2024/01/22 08:11:43;;;;;;;18.50;14.17;;;13.30;79.60;;;;;;4592586;19;20315;-72
2024/01/22 08:13:17;;;;;;;15.20;12.53;;;13.30;79.10;;;;;;4592790;19;20298;-73
2024/01/22 08:14:51;;;;;;;15.97;13.07;;;13.30;79.10;;;;;;4592433;19;20009;-73
2024/01/22 08:16:26;;;;;;;13.80;9.30;;;13.30;79.50;;;;;;4592844;19;20013;-72
2024/01/22 08:18:01;;;;;;;15.63;8.90;;;13.30;79.30;;;;;;4591202;19;20451;-73
2024/01/22 08:19:36;;;;;;;11.17;7.50;;;13.30;79.90;;;;;;4592296;19;20429;-72
2024/01/22 08:21:12;;;;;;;11.77;7.63;;;13.20;79.30;;;;;;4591051;19;20102;-72
2024/01/22 08:22:47;;;;;;;16.47;9.30;;;13.20;79.30;;;;;;4592280;19;20453;-73
2024/01/22 08:24:20;;;;;;;15.50;9.37;;;13.20;79.50;;;;;;4592280;19;20389;-73